createdAt,value
2023-02-09T00:01:16.561Z,16.73
2023-02-09T00:03:47.580Z,17.27
2023-02-09T00:06:19.727Z,19.80
2023-02-09T00:08:47.522Z,17.60
2023-02-09T00:11:19.637Z,18.60
2023-02-09T00:13:46.471Z,16.60
2023-02-09T00:16:14.570Z,15.87
2023-02-09T00:18:42.426Z,16.47
2023-02-09T00:21:12.060Z,16.53
2023-02-09T00:23:42.110Z,17.13
2023-02-09T00:26:12.304Z,15.43
2023-02-09T00:28:43.427Z,16.40
2023-02-09T00:31:13.752Z,16.67
2023-02-09T00:33:42.151Z,16.67
2023-02-09T00:36:13.250Z,15.93
2023-02-09T00:38:44.271Z,14.63
2023-02-09T00:41:13.428Z,15.73
2023-02-09T00:43:42.071Z,15.67
2023-02-09T00:46:10.528Z,16.40
2023-02-09T00:48:38.570Z,15.50
2023-02-09T00:51:06.659Z,15.20
2023-02-09T00:53:36.798Z,15.13
2023-02-09T00:56:06.746Z,15.60
2023-02-09T00:58:34.576Z,14.83
2023-02-09T01:01:02.365Z,14.13
2023-02-09T01:03:30.183Z,14.80
2023-02-09T01:05:59.711Z,12.50
2023-02-09T01:08:28.871Z,10.57
2023-02-09T01:10:56.689Z,10.07
2023-02-09T01:13:26.167Z,9.90
2023-02-09T01:15:54.004Z,8.93
2023-02-09T01:18:21.760Z,8.93
2023-02-09T01:20:49.741Z,8.37
2023-02-09T01:23:17.589Z,8.93
2023-02-09T01:25:45.902Z,7.53
2023-02-09T01:28:13.809Z,8.07
2023-02-09T01:30:43.421Z,7.67
2023-02-09T01:33:11.397Z,7.53
2023-02-09T01:35:39.179Z,8.50
2023-02-09T01:38:06.950Z,7.60
2023-02-09T01:40:36.456Z,9.00
2023-02-09T01:43:04.598Z,8.10
2023-02-09T01:45:37.622Z,8.00
2023-02-09T01:48:06.871Z,8.13
2023-02-09T01:50:38.438Z,8.53
2023-02-09T01:53:07.426Z,7.80
2023-02-09T01:55:39.107Z,8.23
2023-02-09T01:58:11.465Z,7.90
2023-02-09T02:00:39.426Z,7.90
2023-02-09T02:03:13.487Z,8.33
2023-02-09T02:05:45.043Z,8.67
2023-02-09T02:08:20.689Z,8.07
2023-02-09T02:10:48.495Z,8.33
2023-02-09T02:13:16.486Z,8.60
2023-02-09T02:15:57.236Z,8.83
2023-02-09T02:18:38.301Z,7.83
2023-02-09T02:21:57.995Z,8.37
2023-02-09T02:24:55.644Z,9.07
2023-02-09T02:27:32.100Z,8.57
2023-02-09T02:30:27.910Z,8.10
2023-02-09T02:33:14.165Z,8.60
2023-02-09T02:35:47.110Z,8.57
2023-02-09T02:38:25.427Z,8.40
2023-02-09T02:40:59.055Z,9.10
2023-02-09T02:43:41.296Z,8.50
2023-02-09T02:46:15.449Z,8.80
2023-02-09T02:48:48.868Z,9.03
2023-02-09T02:51:22.626Z,8.77
2023-02-09T02:53:57.026Z,7.87
2023-02-09T02:56:28.970Z,9.07
2023-02-09T02:59:00.440Z,8.73
2023-02-09T03:01:34.102Z,8.20
2023-02-09T03:04:06.121Z,8.70
2023-02-09T03:06:35.091Z,8.70
2023-02-09T03:09:03.704Z,8.60
2023-02-09T03:11:35.770Z,8.53
2023-02-09T03:14:19.786Z,8.73
2023-02-09T03:16:51.481Z,8.50
2023-02-09T03:19:32.238Z,9.07
2023-02-09T03:22:07.208Z,9.17
2023-02-09T03:24:40.398Z,8.73
2023-02-09T03:27:16.636Z,8.90
2023-02-09T03:29:46.557Z,8.53
2023-02-09T03:32:15.839Z,9.00
2023-02-09T03:34:46.423Z,9.60
2023-02-09T03:37:14.279Z,8.10
2023-02-09T03:39:42.470Z,8.73
2023-02-09T03:42:10.288Z,8.53
2023-02-09T03:44:38.079Z,8.80
2023-02-09T03:47:08.249Z,8.47
2023-02-09T03:49:39.170Z,8.40
2023-02-09T03:52:10.380Z,9.13
2023-02-09T03:54:38.486Z,9.20
2023-02-09T03:57:07.388Z,8.97
2023-02-09T03:59:37.562Z,8.40
2023-02-09T04:02:07.448Z,8.73
2023-02-09T04:04:35.683Z,8.07
2023-02-09T04:07:03.797Z,9.07
2023-02-09T04:09:33.091Z,8.83
2023-02-09T04:12:00.906Z,8.67
2023-02-09T04:14:28.818Z,8.87
2023-02-09T04:16:56.664Z,9.70
2023-02-09T04:19:24.589Z,9.13
2023-02-09T04:21:52.384Z,9.80
2023-02-09T04:24:27.306Z,9.50
2023-02-09T04:26:56.686Z,9.30
2023-02-09T04:29:24.471Z,8.87
2023-02-09T04:31:52.438Z,9.60
2023-02-09T04:34:21.179Z,9.70
2023-02-09T04:36:49.064Z,9.23
2023-02-09T04:39:16.913Z,8.80
2023-02-09T04:41:44.685Z,10.20
2023-02-09T04:44:13.801Z,9.90
2023-02-09T04:46:41.654Z,9.43
2023-02-09T04:49:09.514Z,10.30
2023-02-09T04:51:37.793Z,9.57
2023-02-09T04:54:05.742Z,10.53
2023-02-09T04:56:33.788Z,9.43
2023-02-09T04:59:19.314Z,10.67
2023-02-09T05:01:48.608Z,9.90
2023-02-09T05:04:16.506Z,9.33
2023-02-09T05:06:44.328Z,10.47
2023-02-09T05:09:12.196Z,9.83
2023-02-09T05:11:40.080Z,9.93
2023-02-09T05:14:08.851Z,10.37
2023-02-09T05:16:39.041Z,10.63
2023-02-09T05:19:08.429Z,9.90
2023-02-09T05:21:36.289Z,9.80
2023-02-09T05:24:04.161Z,9.90
2023-02-09T05:26:32.571Z,10.43
2023-02-09T05:29:00.391Z,10.63
2023-02-09T05:31:28.538Z,10.23
2023-02-09T05:33:56.364Z,10.13
2023-02-09T05:36:25.698Z,10.40
2023-02-09T05:38:53.476Z,9.97
2023-02-09T05:41:35.290Z,10.23
2023-02-09T05:44:03.227Z,9.73
2023-02-09T05:46:31.179Z,10.83
2023-02-09T05:48:58.969Z,10.43
2023-02-09T05:51:28.171Z,9.67
2023-02-09T05:53:56.360Z,10.73
2023-02-09T05:56:24.148Z,10.27
2023-02-09T05:58:51.940Z,10.70
2023-02-09T06:01:19.762Z,10.80
2023-02-09T06:03:47.719Z,11.57
2023-02-09T06:06:15.637Z,10.13
2023-02-09T06:08:44.920Z,10.40
2023-02-09T06:11:12.655Z,10.57
2023-02-09T06:13:41.038Z,10.33
2023-02-09T06:16:09.788Z,10.70
2023-02-09T06:18:38.126Z,11.07
2023-02-09T06:21:06.690Z,11.50
2023-02-09T06:23:35.386Z,11.03
2023-02-09T06:26:08.643Z,12.30
2023-02-09T06:28:36.667Z,11.93
2023-02-09T06:31:05.438Z,11.50
2023-02-09T06:33:34.417Z,10.03
2023-02-09T06:36:02.399Z,12.10
2023-02-09T06:38:31.824Z,11.77
2023-02-09T06:40:59.590Z,11.13
2023-02-09T06:43:28.948Z,11.83
2023-02-09T06:45:56.859Z,11.47
2023-02-09T06:48:24.742Z,11.97
2023-02-09T06:50:52.733Z,11.93
2023-02-09T06:53:20.598Z,11.97
2023-02-09T06:55:48.459Z,11.33
2023-02-09T06:58:16.287Z,12.30
2023-02-09T07:00:46.290Z,12.00
2023-02-09T07:03:14.370Z,11.17
2023-02-09T07:05:42.256Z,12.20
2023-02-09T07:08:10.825Z,12.57
2023-02-09T07:10:41.097Z,11.43
2023-02-09T07:13:08.992Z,11.63
2023-02-09T07:15:42.089Z,11.93
2023-02-09T07:18:11.349Z,11.67
2023-02-09T07:20:39.153Z,11.87
2023-02-09T07:23:07.658Z,11.90
2023-02-09T07:25:35.634Z,12.57
2023-02-09T07:28:03.560Z,12.60
2023-02-09T07:30:31.360Z,12.77
2023-02-09T07:32:59.161Z,13.07
2023-02-09T07:35:28.495Z,12.17
2023-02-09T07:37:56.330Z,13.37
2023-02-09T07:40:24.309Z,11.83
2023-02-09T07:42:52.249Z,12.00
2023-02-09T07:45:20.163Z,11.83
2023-02-09T07:47:47.957Z,12.20
2023-02-09T07:50:15.926Z,13.10
2023-02-09T07:52:45.154Z,12.23
2023-02-09T07:55:12.909Z,12.43
2023-02-09T07:57:41.534Z,12.87
2023-02-09T08:00:10.804Z,13.30
2023-02-09T08:02:42.993Z,11.87
2023-02-09T08:05:15.351Z,13.10
2023-02-09T08:07:43.296Z,13.47
2023-02-09T08:10:12.746Z,12.13
2023-02-09T08:12:58.695Z,12.63
2023-02-09T08:15:29.565Z,12.73
2023-02-09T08:18:01.124Z,12.70
2023-02-09T08:20:31.824Z,11.83
2023-02-09T08:23:06.922Z,11.33
2023-02-09T08:25:37.639Z,12.33
2023-02-09T08:28:06.590Z,13.03
2023-02-09T08:30:35.622Z,12.13
2023-02-09T08:33:03.716Z,12.90
2023-02-09T08:35:31.600Z,11.30
2023-02-09T08:38:03.460Z,12.53
2023-02-09T08:40:32.061Z,11.93
2023-02-09T08:43:01.295Z,12.33
2023-02-09T08:45:29.449Z,12.00
2023-02-09T08:47:57.349Z,12.47
2023-02-09T08:50:25.160Z,11.77
2023-02-09T08:52:53.082Z,12.23
2023-02-09T08:55:20.971Z,11.57
2023-02-09T08:57:48.757Z,12.87
2023-02-09T09:00:19.152Z,11.93
2023-02-09T09:02:47.004Z,12.83
2023-02-09T09:05:15.270Z,12.40
2023-02-09T09:07:43.284Z,12.23
2023-02-09T09:10:12.708Z,12.47
2023-02-09T09:12:40.635Z,12.60
2023-02-09T09:15:09.115Z,13.20
2023-02-09T09:17:38.385Z,11.90
2023-02-09T09:20:07.068Z,12.43
2023-02-09T09:22:35.038Z,12.83
2023-02-09T09:25:02.966Z,12.17
2023-02-09T09:27:32.659Z,12.47
2023-02-09T09:30:00.510Z,12.30
2023-02-09T09:32:28.571Z,12.53
2023-02-09T09:35:00.035Z,12.93
2023-02-09T09:37:28.318Z,12.27
2023-02-09T09:39:56.200Z,11.90
2023-02-09T09:42:28.740Z,11.37
2023-02-09T09:44:56.895Z,12.60
2023-02-09T09:47:33.885Z,11.63
2023-02-09T09:50:03.319Z,11.40
2023-02-09T09:52:33.231Z,10.87
2023-02-09T09:55:02.404Z,11.10
2023-02-09T09:57:31.476Z,11.13
2023-02-09T09:59:59.452Z,10.77
2023-02-09T10:02:31.052Z,10.23
2023-02-09T10:05:11.596Z,9.60
2023-02-09T10:07:42.589Z,10.30
2023-02-09T10:10:16.805Z,10.43
2023-02-09T10:12:49.637Z,10.10
2023-02-09T10:15:19.813Z,9.70
2023-02-09T10:17:47.607Z,9.40
2023-02-09T10:20:16.753Z,9.67
2023-02-09T10:22:45.587Z,9.93
2023-02-09T10:25:39.173Z,8.20
2023-02-09T10:28:07.323Z,8.27
2023-02-09T10:30:35.262Z,8.07
2023-02-09T10:33:03.750Z,10.03
2023-02-09T10:35:43.222Z,9.57
2023-02-09T10:38:17.107Z,9.50
2023-02-09T10:40:47.470Z,9.70
2023-02-09T10:43:24.983Z,9.50
2023-02-09T10:45:56.017Z,9.67
2023-02-09T10:48:25.828Z,10.10
2023-02-09T10:50:58.349Z,10.60
2023-02-09T10:53:28.266Z,10.67
2023-02-09T10:56:05.998Z,9.20
2023-02-09T10:58:35.900Z,9.30
2023-02-09T11:01:18.139Z,9.90
2023-02-09T11:04:00.163Z,9.50
2023-02-09T11:06:34.605Z,10.20
2023-02-09T11:09:07.787Z,9.93
2023-02-09T11:11:38.550Z,9.53
2023-02-09T11:14:13.027Z,10.60
2023-02-09T11:17:10.968Z,9.97
2023-02-09T11:20:07.426Z,9.17
2023-02-09T11:23:05.648Z,9.77
2023-02-09T11:25:37.353Z,9.40
2023-02-09T11:28:36.962Z,9.70
2023-02-09T11:31:25.644Z,9.50
2023-02-09T11:34:01.180Z,9.80
2023-02-09T11:36:41.769Z,8.57
2023-02-09T11:39:18.129Z,8.73
2023-02-09T11:42:08.267Z,8.77
2023-02-09T11:44:42.415Z,9.37
2023-02-09T11:47:15.697Z,9.30
2023-02-09T11:49:46.648Z,8.67
2023-02-09T11:52:19.005Z,9.10
2023-02-09T11:54:53.808Z,8.70
2023-02-09T11:57:31.565Z,8.90
2023-02-09T12:00:02.169Z,8.87
2023-02-09T12:02:43.034Z,9.40
2023-02-09T12:05:14.672Z,8.93
2023-02-09T12:07:49.097Z,9.30
2023-02-09T12:10:28.802Z,8.37
2023-02-09T12:13:03.571Z,9.18
2023-02-09T12:15:40.616Z,9.33
2023-02-09T12:18:13.169Z,7.82
2023-02-09T12:20:52.402Z,8.85
2023-02-09T12:23:28.277Z,8.55
2023-02-09T12:25:59.960Z,8.65
2023-02-09T12:28:44.921Z,7.63
2023-02-09T12:31:28.216Z,8.63
2023-02-09T12:34:23.429Z,8.27
2023-02-09T12:37:16.910Z,8.02
2023-02-09T12:40:22.484Z,7.97
2023-02-09T12:43:30.008Z,8.00
2023-02-09T12:46:26.341Z,8.20
2023-02-09T12:49:07.491Z,7.95
2023-02-09T12:52:13.670Z,8.15
2023-02-09T12:54:44.659Z,8.73
2023-02-09T12:57:52.107Z,8.23
2023-02-09T13:00:34.367Z,8.60
2023-02-09T13:03:17.953Z,8.40
2023-02-09T13:05:49.795Z,9.18
2023-02-09T13:08:25.098Z,8.88
2023-02-09T13:10:58.538Z,7.90
2023-02-09T13:13:35.413Z,8.38
2023-02-09T13:16:34.134Z,7.70
2023-02-09T13:19:07.754Z,8.93
2023-02-09T13:21:48.162Z,8.45
2023-02-09T13:24:17.955Z,7.40
2023-02-09T13:26:54.342Z,8.18
2023-02-09T13:29:24.029Z,7.90
2023-02-09T13:32:02.950Z,7.03
2023-02-09T13:34:36.486Z,6.65
2023-02-09T13:37:19.250Z,7.35
2023-02-09T13:39:54.947Z,7.13
2023-02-09T13:42:24.945Z,7.80
2023-02-09T13:44:54.438Z,7.22
2023-02-09T13:47:23.376Z,7.53
2023-02-09T13:50:00.158Z,8.13
2023-02-09T13:52:35.286Z,7.97
2023-02-09T13:55:12.836Z,7.72
2023-02-09T13:57:43.088Z,8.13
2023-02-09T14:00:22.753Z,8.30
2023-02-09T14:02:53.856Z,8.03
2023-02-09T14:05:30.390Z,8.70
2023-02-09T14:08:00.720Z,8.40
2023-02-09T14:10:29.943Z,8.20
2023-02-09T14:13:02.921Z,8.50
2023-02-09T14:15:55.664Z,9.00
2023-02-09T14:18:33.273Z,9.65
2023-02-09T14:21:26.820Z,8.70
2023-02-09T14:24:17.551Z,9.48
2023-02-09T14:26:50.069Z,9.55
2023-02-09T14:29:21.971Z,9.43
2023-02-09T14:31:51.713Z,8.88
2023-02-09T14:34:25.844Z,9.03
2023-02-09T14:36:54.895Z,9.83
2023-02-09T14:39:24.449Z,9.60
2023-02-09T14:42:01.155Z,10.03
2023-02-09T14:44:30.331Z,9.40
2023-02-09T14:46:59.704Z,9.10
2023-02-09T14:49:28.896Z,8.50
2023-02-09T14:52:04.646Z,9.87
2023-02-09T14:54:38.252Z,8.60
2023-02-09T14:57:06.064Z,9.27
2023-02-09T14:59:33.822Z,8.73
2023-02-09T15:02:01.626Z,9.07
2023-02-09T15:04:29.386Z,8.07
2023-02-09T15:07:02.994Z,8.17
2023-02-09T15:09:36.138Z,7.63
2023-02-09T15:12:07.682Z,8.30
2023-02-09T15:14:41.459Z,8.40
2023-02-09T15:17:18.121Z,8.57
2023-02-09T15:19:46.641Z,7.73
2023-02-09T15:22:16.161Z,8.30
2023-02-09T15:24:46.828Z,8.63
2023-02-09T15:27:19.566Z,8.30
2023-02-09T15:29:47.372Z,8.43
2023-02-09T15:32:16.358Z,8.93
2023-02-09T15:35:03.361Z,9.10
2023-02-09T15:37:36.694Z,8.57
2023-02-09T15:40:40.590Z,8.40
2023-02-09T15:43:34.443Z,8.73
2023-02-09T15:46:19.625Z,8.53
2023-02-09T15:48:47.471Z,9.73
2023-02-09T15:51:16.239Z,8.57
2023-02-09T15:53:44.993Z,7.87
2023-02-09T15:56:15.808Z,8.83
2023-02-09T15:58:46.330Z,8.63
2023-02-09T16:01:16.656Z,9.53
2023-02-09T16:03:45.407Z,8.87
2023-02-09T16:06:16.856Z,9.33
2023-02-09T16:08:45.872Z,9.50
2023-02-09T16:11:20.642Z,9.70
2023-02-09T16:13:48.794Z,9.83
2023-02-09T16:16:17.887Z,9.90
2023-02-09T16:18:46.451Z,10.17
2023-02-09T16:21:20.934Z,9.40
2023-02-09T16:23:49.003Z,9.53
2023-02-09T16:26:19.274Z,9.73
2023-02-09T16:28:48.115Z,9.83
2023-02-09T16:31:15.873Z,9.23
2023-02-09T16:33:43.714Z,10.03
2023-02-09T16:36:16.749Z,9.60
2023-02-09T16:38:45.380Z,9.30
2023-02-09T16:41:35.257Z,9.90
2023-02-09T16:44:13.452Z,9.87
2023-02-09T16:46:42.352Z,10.23
2023-02-09T16:49:26.828Z,10.63
2023-02-09T16:51:57.242Z,9.63
2023-02-09T16:54:25.040Z,10.63
2023-02-09T16:56:54.485Z,10.30
2023-02-09T16:59:24.000Z,10.43
2023-02-09T17:01:51.910Z,10.57
2023-02-09T17:04:20.012Z,10.50
2023-02-09T17:06:50.482Z,10.67
2023-02-09T17:09:18.273Z,11.07
2023-02-09T17:11:46.226Z,11.87
2023-02-09T17:14:14.267Z,10.70
2023-02-09T17:16:49.402Z,11.33
2023-02-09T17:19:20.172Z,11.07
2023-02-09T17:21:48.030Z,14.10
2023-02-09T17:24:17.488Z,12.47
2023-02-09T17:26:45.555Z,15.07
2023-02-09T17:29:13.372Z,16.37
2023-02-09T17:31:53.206Z,16.50
2023-02-09T17:34:26.901Z,16.10
2023-02-09T17:36:54.910Z,16.00
2023-02-09T17:39:22.678Z,15.53
2023-02-09T17:41:50.643Z,13.90
2023-02-09T17:44:28.876Z,14.50
2023-02-09T17:47:04.375Z,14.33
2023-02-09T17:49:33.183Z,14.40
2023-02-09T17:52:01.165Z,14.40
2023-02-09T17:54:29.756Z,12.97
2023-02-09T17:56:57.542Z,13.70
2023-02-09T17:59:25.394Z,12.70
2023-02-09T18:01:55.196Z,12.40
2023-02-09T18:04:27.064Z,12.60
2023-02-09T18:06:57.500Z,11.97
2023-02-09T18:09:25.559Z,12.10
2023-02-09T18:11:59.737Z,12.83
2023-02-09T18:14:28.996Z,13.57
2023-02-09T18:16:57.060Z,15.33
2023-02-09T18:19:26.804Z,13.87
2023-02-09T18:21:57.635Z,13.27
2023-02-09T18:24:28.186Z,13.10
2023-02-09T18:26:57.084Z,12.83
2023-02-09T18:29:29.159Z,12.57
2023-02-09T18:31:57.471Z,11.80
2023-02-09T18:34:26.731Z,12.97
2023-02-09T18:36:54.742Z,13.60
2023-02-09T18:39:22.645Z,13.73
2023-02-09T18:41:54.451Z,12.43
2023-02-09T18:44:24.524Z,15.23
2023-02-09T18:46:52.416Z,16.77
2023-02-09T18:49:20.216Z,14.67
2023-02-09T18:51:49.707Z,16.50
2023-02-09T18:54:17.503Z,15.67
2023-02-09T18:56:45.542Z,15.10
2023-02-09T18:59:13.507Z,16.20
2023-02-09T19:01:41.528Z,15.53
2023-02-09T19:04:09.422Z,16.43
2023-02-09T19:06:37.945Z,12.87
2023-02-09T19:09:07.139Z,13.97
2023-02-09T19:11:35.121Z,15.37
2023-02-09T19:14:20.367Z,14.43
2023-02-09T19:16:48.191Z,15.20
2023-02-09T19:19:16.258Z,14.87
2023-02-09T19:21:44.238Z,14.20
2023-02-09T19:24:13.613Z,14.03
2023-02-09T19:26:41.497Z,13.67
2023-02-09T19:29:09.408Z,14.60
2023-02-09T19:31:37.689Z,14.97
2023-02-09T19:34:05.678Z,15.07
2023-02-09T19:36:33.943Z,15.17
2023-02-09T19:39:02.523Z,15.30
2023-02-09T19:41:32.246Z,16.33
2023-02-09T19:44:00.168Z,15.13
2023-02-09T19:46:28.186Z,15.63
2023-02-09T19:48:56.148Z,16.73
2023-02-09T19:51:24.450Z,16.67
2023-02-09T19:53:52.433Z,16.13
2023-02-09T19:56:23.295Z,17.03
2023-02-09T19:58:53.016Z,16.50
2023-02-09T20:01:22.248Z,17.47
2023-02-09T20:03:52.202Z,17.80
2023-02-09T20:06:20.083Z,17.70
2023-02-09T20:08:48.098Z,18.73
2023-02-09T20:11:18.492Z,18.90
2023-02-09T20:13:46.807Z,18.73
2023-02-09T20:16:20.204Z,18.57
2023-02-09T20:18:48.925Z,19.10
2023-02-09T20:21:18.416Z,19.07
2023-02-09T20:23:46.906Z,19.00
2023-02-09T20:26:17.599Z,20.03
2023-02-09T20:28:45.940Z,20.40
2023-02-09T20:31:15.056Z,20.37
2023-02-09T20:33:45.176Z,21.60
2023-02-09T20:36:13.174Z,20.97
2023-02-09T20:38:41.095Z,21.13
2023-02-09T20:41:10.707Z,21.10
2023-02-09T20:43:56.156Z,23.23
2023-02-09T20:46:55.468Z,22.87
2023-02-09T20:49:31.152Z,23.67
2023-02-09T20:51:59.528Z,22.90
2023-02-09T20:54:27.599Z,25.17
2023-02-09T20:56:55.443Z,23.27
2023-02-09T20:59:23.365Z,25.40
2023-02-09T21:01:52.272Z,23.43
2023-02-09T21:04:20.172Z,25.17
2023-02-09T21:06:49.736Z,23.27
2023-02-09T21:09:19.095Z,23.60
2023-02-09T21:11:47.127Z,24.47
2023-02-09T21:14:22.158Z,23.97
2023-02-09T21:16:56.274Z,23.73
2023-02-09T21:19:24.983Z,25.33
2023-02-09T21:21:54.184Z,24.93
2023-02-09T21:24:22.170Z,24.53
2023-02-09T21:26:50.132Z,26.17
2023-02-09T21:29:18.217Z,26.27
2023-02-09T21:31:46.524Z,24.83
2023-02-09T21:34:15.757Z,25.50
2023-02-09T21:36:44.186Z,25.13
2023-02-09T21:39:14.078Z,25.57
2023-02-09T21:41:59.091Z,25.97
2023-02-09T21:44:26.993Z,25.37
2023-02-09T21:46:54.932Z,25.33
2023-02-09T21:49:23.146Z,25.37
2023-02-09T21:51:51.025Z,26.23
2023-02-09T21:54:20.250Z,25.70
2023-02-09T21:56:48.164Z,25.30
2023-02-09T21:59:15.947Z,24.90
2023-02-09T22:01:43.809Z,25.30
2023-02-09T22:04:11.726Z,24.47
2023-02-09T22:06:41.616Z,25.03
2023-02-09T22:09:09.779Z,26.37
2023-02-09T22:11:38.984Z,25.70
2023-02-09T22:14:06.776Z,26.67
2023-02-09T22:16:34.873Z,26.37
2023-02-09T22:19:02.800Z,25.67
2023-02-09T22:21:30.665Z,28.33
2023-02-09T22:23:58.576Z,27.07
2023-02-09T22:26:26.468Z,26.43
2023-02-09T22:28:55.745Z,27.57
2023-02-09T22:31:23.757Z,27.77
2023-02-09T22:33:54.876Z,27.27
2023-02-09T22:36:23.355Z,27.63
2023-02-09T22:38:51.693Z,29.17
2023-02-09T22:41:24.232Z,28.90
2023-02-09T22:43:54.024Z,30.57
2023-02-09T22:46:25.179Z,30.00
2023-02-09T22:48:53.640Z,30.13
2023-02-09T22:51:22.103Z,30.57
2023-02-09T22:53:49.936Z,32.13
2023-02-09T22:56:18.433Z,30.80
2023-02-09T22:58:46.190Z,30.87
2023-02-09T23:01:14.458Z,30.97
2023-02-09T23:03:43.672Z,30.70
2023-02-09T23:06:14.116Z,30.40
2023-02-09T23:08:41.951Z,32.53
2023-02-09T23:11:13.487Z,31.73
2023-02-09T23:13:42.006Z,31.03
2023-02-09T23:16:12.396Z,30.77
2023-02-09T23:18:41.058Z,29.27
2023-02-09T23:21:10.266Z,32.13
2023-02-09T23:23:38.039Z,32.20
2023-02-09T23:26:05.827Z,29.63
2023-02-09T23:28:33.793Z,31.20
2023-02-09T23:31:05.534Z,30.50
2023-02-09T23:33:34.635Z,31.30
2023-02-09T23:36:04.870Z,30.40
2023-02-09T23:38:34.058Z,30.03
2023-02-09T23:41:06.709Z,29.67
2023-02-09T23:43:34.869Z,31.67
2023-02-09T23:46:03.012Z,30.63
2023-02-09T23:48:31.268Z,30.27
2023-02-09T23:51:00.630Z,31.97
2023-02-09T23:53:28.604Z,29.70
2023-02-09T23:56:03.556Z,29.77
2023-02-09T23:58:32.231Z,30.83
